createdAt,value
2022-09-24T00:01:51.709Z,75.44
2022-09-24T00:04:25.851Z,75.20
2022-09-24T00:06:56.526Z,75.42
2022-09-24T00:09:26.812Z,75.50
2022-09-24T00:11:57.220Z,75.62
2022-09-24T00:14:27.533Z,75.61
2022-09-24T00:16:57.880Z,75.54
2022-09-24T00:19:28.376Z,75.41
2022-09-24T00:21:58.772Z,75.38
2022-09-24T00:24:46.529Z,75.32
2022-09-24T00:27:16.882Z,75.30
2022-09-24T00:29:47.192Z,75.58
2022-09-24T00:32:17.633Z,75.30
2022-09-24T00:34:47.894Z,75.41
2022-09-24T00:37:19.284Z,75.39
2022-09-24T00:39:51.601Z,75.30
2022-09-24T00:42:22.959Z,75.43
2022-09-24T00:44:55.759Z,75.72
2022-09-24T00:47:36.523Z,75.72
2022-09-24T00:50:14.181Z,75.58
2022-09-24T00:52:48.489Z,75.48
2022-09-24T00:55:21.043Z,75.42
2022-09-24T00:57:52.277Z,75.72
2022-09-24T01:00:23.100Z,75.82
2022-09-24T01:02:56.651Z,76.05
2022-09-24T01:05:26.992Z,76.21
2022-09-24T01:07:58.131Z,76.23
2022-09-24T01:10:51.202Z,76.19
2022-09-24T01:13:49.861Z,76.43
2022-09-24T01:16:29.747Z,76.61
2022-09-24T01:19:18.477Z,76.52
2022-09-24T01:21:52.036Z,76.61
2022-09-24T01:24:40.470Z,76.81
2022-09-24T01:27:15.758Z,76.84
2022-09-24T01:29:59.215Z,76.86
2022-09-24T01:32:34.475Z,76.86
2022-09-24T01:35:11.017Z,76.88
2022-09-24T01:37:46.432Z,77.06
2022-09-24T01:40:19.166Z,77.20
2022-09-24T01:42:51.034Z,77.23
2022-09-24T01:45:24.875Z,77.31
2022-09-24T01:47:55.186Z,77.47
2022-09-24T01:50:28.731Z,77.71
2022-09-24T01:53:06.348Z,77.79
2022-09-24T01:55:40.039Z,78.08
2022-09-24T01:58:12.885Z,78.09
2022-09-24T02:00:49.601Z,78.27
2022-09-24T02:03:24.198Z,78.34
2022-09-24T02:06:01.324Z,78.65
2022-09-24T02:08:37.969Z,78.83
2022-09-24T02:11:14.084Z,79.13
2022-09-24T02:13:49.142Z,79.32
2022-09-24T02:16:23.258Z,79.45
2022-09-24T02:18:58.288Z,79.62
2022-09-24T02:21:32.017Z,79.72
2022-09-24T02:24:06.411Z,79.78
2022-09-24T02:26:36.860Z,79.95
2022-09-24T02:29:07.618Z,79.87
2022-09-24T02:31:43.940Z,80.21
2022-09-24T02:34:21.596Z,80.21
2022-09-24T02:36:54.270Z,80.27
2022-09-24T02:39:24.881Z,80.45
2022-09-24T02:41:56.942Z,80.49
2022-09-24T02:44:27.660Z,80.56
2022-09-24T02:46:58.179Z,80.73
2022-09-24T02:49:29.303Z,80.87
2022-09-24T02:51:59.882Z,80.91
2022-09-24T02:54:30.256Z,80.98
2022-09-24T02:57:00.566Z,80.95
2022-09-24T02:59:30.956Z,81.13
2022-09-24T03:02:01.311Z,81.16
2022-09-24T03:04:31.835Z,81.22
2022-09-24T03:07:03.181Z,81.18
2022-09-24T03:09:33.565Z,81.28
2022-09-24T03:12:08.181Z,81.29
2022-09-24T03:14:38.466Z,81.41
2022-09-24T03:17:10.234Z,81.48
2022-09-24T03:19:41.656Z,81.46
2022-09-24T03:22:11.968Z,81.57
2022-09-24T03:24:42.263Z,81.35
2022-09-24T03:27:12.678Z,81.42
2022-09-24T03:30:00.389Z,81.51
2022-09-24T03:32:33.849Z,81.65
2022-09-24T03:35:07.504Z,81.65
2022-09-24T03:37:47.036Z,81.62
2022-09-24T03:40:21.774Z,81.73
2022-09-24T03:42:52.118Z,81.66
2022-09-24T03:45:22.866Z,81.68
2022-09-24T03:47:56.655Z,81.79
2022-09-24T03:50:30.897Z,81.82
2022-09-24T03:53:01.551Z,81.73
2022-09-24T03:55:32.611Z,81.81
2022-09-24T03:58:03.349Z,81.98
2022-09-24T04:00:37.533Z,81.88
2022-09-24T04:03:09.516Z,82.15
2022-09-24T04:05:40.271Z,81.96
2022-09-24T04:08:10.497Z,82.07
2022-09-24T04:10:41.155Z,81.96
2022-09-24T04:13:11.461Z,82.19
2022-09-24T04:15:42.528Z,82.12
2022-09-24T04:18:13.178Z,82.11
2022-09-24T04:20:44.613Z,81.95
2022-09-24T04:23:18.285Z,82.03
2022-09-24T04:25:48.611Z,82.06
2022-09-24T04:28:20.570Z,82.00
2022-09-24T04:30:53.708Z,82.19
2022-09-24T04:33:24.187Z,82.15
2022-09-24T04:35:54.635Z,82.10
2022-09-24T04:38:25.678Z,82.32
2022-09-24T04:40:56.012Z,82.07
2022-09-24T04:43:32.390Z,82.28
2022-09-24T04:46:02.846Z,82.13
2022-09-24T04:48:34.679Z,82.29
2022-09-24T04:51:05.414Z,82.31
2022-09-24T04:53:47.850Z,82.28
2022-09-24T04:56:18.162Z,82.15
2022-09-24T04:58:52.820Z,82.24
2022-09-24T05:01:23.882Z,82.34
2022-09-24T05:03:54.363Z,82.46
2022-09-24T05:06:24.652Z,82.47
2022-09-24T05:08:54.935Z,82.55
2022-09-24T05:11:25.224Z,82.62
2022-09-24T05:13:55.509Z,82.59
2022-09-24T05:16:26.216Z,82.77
2022-09-24T05:18:56.608Z,82.74
2022-09-24T05:21:26.964Z,82.60
2022-09-24T05:23:57.792Z,82.83
2022-09-24T05:26:45.960Z,82.89
2022-09-24T05:29:16.200Z,82.90
2022-09-24T05:31:46.547Z,82.96
2022-09-24T05:34:17.289Z,82.89
2022-09-24T05:36:47.878Z,82.81
2022-09-24T05:39:18.138Z,82.91
2022-09-24T05:41:51.240Z,82.94
2022-09-24T05:44:21.674Z,83.13
2022-09-24T05:46:54.112Z,83.20
2022-09-24T05:49:24.859Z,82.95
2022-09-24T05:52:03.192Z,83.05
2022-09-24T05:54:33.479Z,82.93
2022-09-24T05:57:03.831Z,83.00
2022-09-24T05:59:36.467Z,83.15
2022-09-24T06:02:08.934Z,82.98
2022-09-24T06:04:41.557Z,82.91
2022-09-24T06:07:15.044Z,83.24
2022-09-24T06:09:45.399Z,82.88
2022-09-24T06:12:15.784Z,82.85
2022-09-24T06:14:46.501Z,82.96
2022-09-24T06:17:18.587Z,82.77
2022-09-24T06:19:48.908Z,82.88
2022-09-24T06:22:19.185Z,82.96
2022-09-24T06:24:51.447Z,82.60
2022-09-24T06:27:21.842Z,82.56
2022-09-24T06:29:52.202Z,82.60
2022-09-24T06:32:24.252Z,82.46
2022-09-24T06:34:58.996Z,82.20
2022-09-24T06:37:29.640Z,82.17
2022-09-24T06:40:00.144Z,82.42
2022-09-24T06:42:31.463Z,82.18
2022-09-24T06:45:27.057Z,82.11
2022-09-24T06:47:58.611Z,82.21
2022-09-24T06:50:31.743Z,81.60
2022-09-24T06:53:05.339Z,81.48
2022-09-24T06:55:36.235Z,81.51
2022-09-24T06:58:09.112Z,81.32
2022-09-24T07:00:41.152Z,81.25
2022-09-24T07:03:17.066Z,81.14
2022-09-24T07:05:47.338Z,81.07
2022-09-24T07:08:17.796Z,80.93
2022-09-24T07:10:52.668Z,80.61
2022-09-24T07:13:23.613Z,80.55
2022-09-24T07:15:54.253Z,80.33
2022-09-24T07:18:28.252Z,80.14
2022-09-24T07:20:59.154Z,80.12
2022-09-24T07:23:29.547Z,79.87
2022-09-24T07:26:00.305Z,79.71
2022-09-24T07:28:30.906Z,79.33
2022-09-24T07:31:02.859Z,79.36
2022-09-24T07:33:35.512Z,79.26
2022-09-24T07:36:08.617Z,79.04
2022-09-24T07:38:39.717Z,78.90
2022-09-24T07:41:11.221Z,78.79
2022-09-24T07:43:44.050Z,78.70
2022-09-24T07:46:17.643Z,78.35
2022-09-24T07:48:51.815Z,78.26
2022-09-24T07:51:22.202Z,78.17
2022-09-24T07:53:52.634Z,77.98
2022-09-24T07:56:24.435Z,78.02
2022-09-24T07:58:55.442Z,77.80
2022-09-24T08:01:26.643Z,77.70
2022-09-24T08:03:57.099Z,77.37
2022-09-24T08:06:27.897Z,77.25
2022-09-24T08:09:00.762Z,77.13
2022-09-24T08:11:33.624Z,76.93
2022-09-24T08:14:04.229Z,76.63
2022-09-24T08:16:34.636Z,76.43
2022-09-24T08:19:04.985Z,76.12
2022-09-24T08:21:35.374Z,75.84
2022-09-24T08:24:06.146Z,75.65
2022-09-24T08:26:36.569Z,75.35
2022-09-24T08:29:06.810Z,75.10
2022-09-24T08:31:38.418Z,74.89
2022-09-24T08:34:09.324Z,74.62
2022-09-24T08:36:42.907Z,74.32
2022-09-24T08:39:15.567Z,74.15
2022-09-24T08:41:58.049Z,73.89
2022-09-24T08:44:50.093Z,73.73
2022-09-24T08:47:34.180Z,73.59
2022-09-24T08:50:13.471Z,73.29
2022-09-24T08:53:02.885Z,73.08
2022-09-24T08:55:40.721Z,72.88
2022-09-24T08:58:31.552Z,72.64
2022-09-24T09:01:14.305Z,72.35
2022-09-24T09:03:50.329Z,71.87
2022-09-24T09:06:41.926Z,71.66
2022-09-24T09:09:17.312Z,71.52
2022-09-24T09:11:51.277Z,71.38
2022-09-24T09:14:31.353Z,71.38
2022-09-24T09:17:06.758Z,71.00
2022-09-24T09:19:39.778Z,70.83
2022-09-24T09:22:15.050Z,70.41
2022-09-24T09:24:49.975Z,69.90
2022-09-24T09:27:21.887Z,69.73
2022-09-24T09:29:57.337Z,69.41
2022-09-24T09:32:40.363Z,68.98
2022-09-24T09:35:19.931Z,68.73
2022-09-24T09:37:58.623Z,68.53
2022-09-24T09:40:36.954Z,68.38
2022-09-24T09:43:11.955Z,68.20
2022-09-24T09:45:48.019Z,67.78
2022-09-24T09:48:21.148Z,67.35
2022-09-24T09:50:54.379Z,66.91
2022-09-24T09:53:27.342Z,66.50
2022-09-24T09:56:00.324Z,66.17
2022-09-24T09:58:33.476Z,65.86
2022-09-24T10:01:10.408Z,65.65
2022-09-24T10:03:50.891Z,65.55
2022-09-24T10:06:28.288Z,65.45
2022-09-24T10:09:13.142Z,65.18
2022-09-24T10:11:43.990Z,64.91
2022-09-24T10:14:18.511Z,64.73
2022-09-24T10:16:54.245Z,64.66
2022-09-24T10:19:27.077Z,64.43
2022-09-24T10:21:59.621Z,64.18
2022-09-24T10:24:30.780Z,64.09
2022-09-24T10:27:06.568Z,63.66
2022-09-24T10:29:54.531Z,63.58
2022-09-24T10:32:27.368Z,63.12
2022-09-24T10:35:02.640Z,63.03
2022-09-24T10:37:33.412Z,62.70
2022-09-24T10:40:13.259Z,62.28
2022-09-24T10:42:43.732Z,62.13
2022-09-24T10:45:16.933Z,62.08
2022-09-24T10:47:58.380Z,61.80
2022-09-24T10:50:36.754Z,61.82
2022-09-24T10:53:14.855Z,61.78
2022-09-24T10:55:52.476Z,61.53
2022-09-24T10:58:42.816Z,61.46
2022-09-24T11:01:20.239Z,61.44
2022-09-24T11:04:13.584Z,61.24
2022-09-24T11:06:58.172Z,60.92
2022-09-24T11:09:38.134Z,60.85
2022-09-24T11:12:18.616Z,60.84
2022-09-24T11:15:04.318Z,60.72
2022-09-24T11:17:44.100Z,60.29
2022-09-24T11:20:28.041Z,60.18
2022-09-24T11:23:18.871Z,59.98
2022-09-24T11:25:58.175Z,59.93
2022-09-24T11:28:55.517Z,59.92
2022-09-24T11:31:37.639Z,59.46
2022-09-24T11:34:31.411Z,59.31
2022-09-24T11:37:19.662Z,58.88
2022-09-24T11:40:02.958Z,58.69
2022-09-24T11:42:41.547Z,58.17
2022-09-24T11:45:33.020Z,57.33
2022-09-24T11:48:23.037Z,56.90
2022-09-24T11:51:03.522Z,57.28
2022-09-24T11:53:40.281Z,57.51
2022-09-24T11:56:13.565Z,57.48
2022-09-24T11:58:49.339Z,57.20
2022-09-24T12:01:24.982Z,56.96
2022-09-24T12:04:01.731Z,56.69
2022-09-24T12:06:32.933Z,56.25
2022-09-24T12:09:10.923Z,55.82
2022-09-24T12:11:48.115Z,55.72
2022-09-24T12:14:24.147Z,55.31
2022-09-24T12:17:00.956Z,54.83
2022-09-24T12:19:33.141Z,55.03
2022-09-24T12:22:06.539Z,54.63
2022-09-24T12:24:43.864Z,54.20
2022-09-24T12:27:18.419Z,54.56
2022-09-24T12:30:11.115Z,54.33
2022-09-24T12:32:57.889Z,54.82
2022-09-24T12:35:39.896Z,55.05
2022-09-24T12:38:15.846Z,55.33
2022-09-24T12:41:24.745Z,55.57
2022-09-24T12:44:00.973Z,55.59
2022-09-24T12:46:39.530Z,55.35
2022-09-24T12:49:24.564Z,55.33
2022-09-24T12:51:56.882Z,54.66
2022-09-24T12:54:34.349Z,54.40
2022-09-24T12:57:11.269Z,54.30
2022-09-24T12:59:52.431Z,53.93
2022-09-24T13:02:25.075Z,53.78
2022-09-24T13:05:16.661Z,53.54
2022-09-24T13:07:59.376Z,53.37
2022-09-24T13:10:32.543Z,53.75
2022-09-24T13:13:04.487Z,53.98
2022-09-24T13:15:38.666Z,53.64
2022-09-24T13:18:25.182Z,54.00
2022-09-24T13:21:09.874Z,54.05
2022-09-24T13:23:50.705Z,53.67
2022-09-24T13:26:34.737Z,53.18
2022-09-24T13:29:06.893Z,52.26
2022-09-24T13:31:45.741Z,52.10
2022-09-24T13:34:21.389Z,51.66
2022-09-24T13:36:58.916Z,51.25
2022-09-24T13:39:36.046Z,50.63
2022-09-24T13:42:16.375Z,50.75
2022-09-24T13:44:51.502Z,50.39
2022-09-24T13:47:29.228Z,49.18
2022-09-24T13:50:09.547Z,48.67
2022-09-24T13:52:45.765Z,48.84
2022-09-24T13:55:22.658Z,48.80
2022-09-24T13:57:52.978Z,48.56
2022-09-24T14:00:27.646Z,48.06
2022-09-24T14:03:04.276Z,47.17
2022-09-24T14:05:40.211Z,47.75
2022-09-24T14:08:14.093Z,47.14
2022-09-24T14:10:45.822Z,46.33
2022-09-24T14:13:23.281Z,46.02
2022-09-24T14:15:56.716Z,45.59
2022-09-24T14:18:28.739Z,46.32
2022-09-24T14:21:06.277Z,46.86
2022-09-24T14:23:41.554Z,47.16
2022-09-24T14:26:24.192Z,46.81
2022-09-24T14:28:55.490Z,46.29
2022-09-24T14:31:26.143Z,45.93
2022-09-24T14:33:57.058Z,45.80
2022-09-24T14:36:29.393Z,45.27
2022-09-24T14:39:02.811Z,46.39
2022-09-24T14:41:36.207Z,46.80
2022-09-24T14:44:13.472Z,46.80
2022-09-24T14:46:50.826Z,47.98
2022-09-24T14:49:23.923Z,49.44
2022-09-24T14:51:56.295Z,50.14
2022-09-24T14:54:32.657Z,50.52
2022-09-24T14:57:24.464Z,50.18
2022-09-24T14:59:55.212Z,49.98
2022-09-24T15:02:31.969Z,50.05
2022-09-24T15:05:06.858Z,50.32
2022-09-24T15:07:38.051Z,50.55
2022-09-24T15:10:21.383Z,50.22
2022-09-24T15:12:54.285Z,49.43
2022-09-24T15:15:33.093Z,49.61
2022-09-24T15:18:03.976Z,49.79
2022-09-24T15:20:36.904Z,49.81
2022-09-24T15:23:08.835Z,49.10
2022-09-24T15:25:39.624Z,49.30
2022-09-24T15:28:14.858Z,49.69
2022-09-24T15:30:45.215Z,49.73
2022-09-24T15:33:17.568Z,49.51
2022-09-24T15:35:49.943Z,48.95
2022-09-24T15:38:22.726Z,48.54
2022-09-24T15:40:54.052Z,48.28
2022-09-24T15:43:25.928Z,48.21
2022-09-24T15:45:57.284Z,49.22
2022-09-24T15:48:27.723Z,49.28
2022-09-24T15:50:59.345Z,50.03
2022-09-24T15:53:31.517Z,51.06
2022-09-24T15:56:03.501Z,51.42
2022-09-24T15:58:37.066Z,52.50
2022-09-24T16:01:07.961Z,53.18
2022-09-24T16:03:40.633Z,53.90
2022-09-24T16:06:17.031Z,54.35
2022-09-24T16:08:47.958Z,54.75
2022-09-24T16:11:18.863Z,55.24
2022-09-24T16:13:50.913Z,55.75
2022-09-24T16:16:21.301Z,55.97
2022-09-24T16:18:52.720Z,56.17
2022-09-24T16:21:23.512Z,56.54
2022-09-24T16:23:58.027Z,56.91
2022-09-24T16:26:28.487Z,57.20
2022-09-24T16:28:58.928Z,57.42
2022-09-24T16:31:29.367Z,57.81
2022-09-24T16:34:00.332Z,57.90
2022-09-24T16:36:31.519Z,58.13
2022-09-24T16:39:02.212Z,58.19
2022-09-24T16:41:34.661Z,58.60
2022-09-24T16:44:06.977Z,58.87
2022-09-24T16:46:37.321Z,58.83
2022-09-24T16:49:07.707Z,58.46
2022-09-24T16:51:38.939Z,58.00
2022-09-24T16:54:09.305Z,57.59
2022-09-24T16:56:39.683Z,57.47
2022-09-24T16:59:11.229Z,57.39
2022-09-24T17:01:42.601Z,57.19
2022-09-24T17:04:13.597Z,57.24
2022-09-24T17:06:45.186Z,57.20
2022-09-24T17:09:33.559Z,57.26
2022-09-24T17:12:04.302Z,57.53
2022-09-24T17:14:38.532Z,57.82
2022-09-24T17:17:09.199Z,58.24
2022-09-24T17:19:39.468Z,58.57
2022-09-24T17:22:09.765Z,59.11
2022-09-24T17:24:40.173Z,59.53
2022-09-24T17:27:10.665Z,59.71
2022-09-24T17:29:41.072Z,59.97
2022-09-24T17:32:11.344Z,60.07
2022-09-24T17:34:45.688Z,60.26
2022-09-24T17:37:17.284Z,60.37
2022-09-24T17:39:47.575Z,60.62
2022-09-24T17:42:17.973Z,60.82
2022-09-24T17:44:48.303Z,61.03
2022-09-24T17:47:18.690Z,61.28
2022-09-24T17:49:49.445Z,61.60
2022-09-24T17:52:21.092Z,61.78
2022-09-24T17:54:51.635Z,61.99
2022-09-24T17:57:25.182Z,62.23
2022-09-24T18:00:03.541Z,62.48
2022-09-24T18:02:34.600Z,62.69
2022-09-24T18:05:05.384Z,62.92
2022-09-24T18:07:43.209Z,62.93
2022-09-24T18:10:17.358Z,63.12
2022-09-24T18:12:51.490Z,63.27
2022-09-24T18:15:21.918Z,63.48
2022-09-24T18:17:53.217Z,63.72
2022-09-24T18:20:23.991Z,63.94
2022-09-24T18:22:55.647Z,64.11
2022-09-24T18:25:29.900Z,64.37
2022-09-24T18:28:01.746Z,64.47
2022-09-24T18:30:32.467Z,64.60
2022-09-24T18:33:03.699Z,64.62
2022-09-24T18:35:34.809Z,64.70
2022-09-24T18:38:05.431Z,64.77
2022-09-24T18:40:36.435Z,64.97
2022-09-24T18:43:07.109Z,65.07
2022-09-24T18:45:38.010Z,65.28
2022-09-24T18:48:16.344Z,65.26
2022-09-24T18:50:47.452Z,65.30
2022-09-24T18:53:18.562Z,65.25
2022-09-24T18:55:50.269Z,65.46
2022-09-24T18:58:28.623Z,65.66
2022-09-24T19:01:02.802Z,65.81
2022-09-24T19:03:33.841Z,66.03
2022-09-24T19:06:06.004Z,66.19
2022-09-24T19:08:37.052Z,66.27
2022-09-24T19:11:10.257Z,66.49
2022-09-24T19:13:42.935Z,66.71
2022-09-24T19:16:15.646Z,66.88
2022-09-24T19:18:52.957Z,66.95
2022-09-24T19:21:25.079Z,67.28
2022-09-24T19:23:58.046Z,67.45
2022-09-24T19:26:33.963Z,67.60
2022-09-24T19:29:06.130Z,67.46
2022-09-24T19:31:38.838Z,67.66
2022-09-24T19:34:12.529Z,67.70
2022-09-24T19:36:44.939Z,67.92
2022-09-24T19:39:22.516Z,67.85
2022-09-24T19:41:56.972Z,67.97
2022-09-24T19:44:30.816Z,68.23
2022-09-24T19:47:01.907Z,68.23
2022-09-24T19:49:32.677Z,68.30
2022-09-24T19:52:08.586Z,68.57
2022-09-24T19:54:40.657Z,68.46
2022-09-24T19:57:12.237Z,68.61
2022-09-24T19:59:44.698Z,68.79
2022-09-24T20:02:16.005Z,68.80
2022-09-24T20:04:46.485Z,69.08
2022-09-24T20:07:18.003Z,69.28
2022-09-24T20:09:48.424Z,69.51
2022-09-24T20:12:20.360Z,69.80
2022-09-24T20:14:51.388Z,69.93
2022-09-24T20:17:23.768Z,69.89
2022-09-24T20:19:54.512Z,69.89
2022-09-24T20:22:27.805Z,69.53
2022-09-24T20:25:00.545Z,69.60
2022-09-24T20:27:48.625Z,69.65
2022-09-24T20:30:21.582Z,69.81
2022-09-24T20:32:53.221Z,69.80
2022-09-24T20:35:23.866Z,69.77
2022-09-24T20:37:54.352Z,69.81
2022-09-24T20:40:24.881Z,69.88
2022-09-24T20:42:55.349Z,70.23
2022-09-24T20:45:25.641Z,70.35
2022-09-24T20:48:01.278Z,70.65
2022-09-24T20:50:39.700Z,70.75
2022-09-24T20:53:14.964Z,70.84
2022-09-24T20:55:45.282Z,70.92
2022-09-24T20:58:17.250Z,70.82
2022-09-24T21:00:54.602Z,70.81
2022-09-24T21:03:43.301Z,71.06
2022-09-24T21:06:20.589Z,71.08
2022-09-24T21:08:53.946Z,71.22
2022-09-24T21:11:27.422Z,71.09
2022-09-24T21:14:00.914Z,71.31
2022-09-24T21:16:33.503Z,71.38
2022-09-24T21:19:08.134Z,71.47
2022-09-24T21:21:39.403Z,71.63
2022-09-24T21:24:15.265Z,71.85
2022-09-24T21:26:46.605Z,72.12
2022-09-24T21:29:20.712Z,72.28
2022-09-24T21:31:51.161Z,72.49
2022-09-24T21:34:22.478Z,72.75
2022-09-24T21:36:53.748Z,72.78
2022-09-24T21:39:26.703Z,72.78
2022-09-24T21:41:59.543Z,72.74
2022-09-24T21:44:33.242Z,72.77
2022-09-24T21:47:04.153Z,72.98
2022-09-24T21:49:36.701Z,72.62
2022-09-24T21:52:09.037Z,72.48
2022-09-24T21:54:39.690Z,72.55
2022-09-24T21:57:11.414Z,72.43
2022-09-24T22:00:00.337Z,72.58
2022-09-24T22:02:32.530Z,72.49
2022-09-24T22:05:03.655Z,72.48
2022-09-24T22:07:34.325Z,72.62
2022-09-24T22:10:10.014Z,72.71
2022-09-24T22:12:40.774Z,72.93
2022-09-24T22:15:11.899Z,73.13
2022-09-24T22:17:43.526Z,73.21
2022-09-24T22:20:13.982Z,73.29
2022-09-24T22:22:44.295Z,73.20
2022-09-24T22:25:14.674Z,73.05
2022-09-24T22:27:45.088Z,73.03
2022-09-24T22:30:16.260Z,73.47
2022-09-24T22:32:46.529Z,73.54
2022-09-24T22:35:37.311Z,73.90
2022-09-24T22:38:11.751Z,74.21
2022-09-24T22:40:42.813Z,74.28
2022-09-24T22:43:13.173Z,74.22
2022-09-24T22:45:44.563Z,74.27
2022-09-24T22:48:17.081Z,74.25
2022-09-24T22:50:47.321Z,74.23
2022-09-24T22:53:17.983Z,74.41
2022-09-24T22:55:52.445Z,74.45
2022-09-24T22:58:23.167Z,74.85
2022-09-24T23:00:53.491Z,74.81
2022-09-24T23:03:24.123Z,74.74
2022-09-24T23:05:54.487Z,74.74
2022-09-24T23:08:24.827Z,75.02
2022-09-24T23:10:55.073Z,74.94
2022-09-24T23:13:25.384Z,75.20
2022-09-24T23:15:55.729Z,75.42
2022-09-24T23:18:26.052Z,75.37
2022-09-24T23:20:57.583Z,75.63
2022-09-24T23:23:27.979Z,75.98
2022-09-24T23:26:10.271Z,75.72
2022-09-24T23:28:43.877Z,75.93
2022-09-24T23:31:15.302Z,75.85
2022-09-24T23:33:45.695Z,75.88
2022-09-24T23:36:17.065Z,76.06
2022-09-24T23:38:47.444Z,75.85
2022-09-24T23:41:18.322Z,75.79
2022-09-24T23:43:48.725Z,75.81
2022-09-24T23:46:20.892Z,76.01
2022-09-24T23:48:51.298Z,76.16
2022-09-24T23:51:21.625Z,76.26
2022-09-24T23:53:52.298Z,76.44
2022-09-24T23:56:23.127Z,76.70
2022-09-24T23:58:55.187Z,76.63
